LiveATC.Net - Listen to live air traffic control over the Internet! Contact for advertising information

ICAO: KFTY  IATA: FTY   Airport: Fulton County Airport-Brown Field
City: Atlanta   State/Province: Georgia
Country: United States   Continent: North America
KFTY METAR Weather: KFTY 262253Z 10004KT 10SM CLR 18/09 A3050 RMK AO2 SLP327 T01780094
KFTY Flight Activity (FlightAware)
KFTY Airport Info   (AirNav) (iFlightPlanner)
KFTY VFR Sectional Chart   (iFlightPlanner) 
KFTY IFR Low Chart   (iFlightPlanner) 
KFTY Ground/Tower
Feed Status: DOWN
Last heard on: 2015-11-21 19:35:03 (5 days 3 hours 39 minutes ago)
KFTY Ground/Tower Audio Archives
County Ground121.700
County Tower118.450

Feed sponsored by:


Unauthorized use prohibited. See Terms of Service

Find LiveATC Audio Streams

Airport/ARTCC Code

(e.g., 124.400, 128.75)
Site-wide search

Browse LiveATC Feeds
LiveATC Coverage Map
Top 50 LiveATC Feeds
Bad Weather Areas

Offer a LiveATC Feed
Press Inquiries

LiveATC on iPhone
LiveATC on Android

Windows Phone
Windows 8/10

LiveATC Mobile
(Mobile browser)

ATC Audio Archives
Interesting Recordings

LiveATC Forums

Home Page
Make a Donation
LiveATC Bookstore

Terms of Use
Privacy Policy

ATC/Radar Sites
U.S. ARTCC Freqs
Canadian Air Freqs


FAA Airport Status
Nat'l Airspace Status
Arrival Demand Charts

Server Software By:

Please make a donation to help us keep growing!